createdAt,value
2018-04-12T00:00:46.201Z,30.58
2018-04-12T00:01:48.727Z,32.00
2018-04-12T00:02:51.251Z,32.97
2018-04-12T00:03:53.814Z,30.92
2018-04-12T00:04:56.347Z,31.30
2018-04-12T00:05:59.651Z,31.23
2018-04-12T00:07:02.217Z,31.95
2018-04-12T00:08:04.792Z,29.90
2018-04-12T00:09:07.331Z,32.40
2018-04-12T00:10:10.624Z,31.02
2018-04-12T00:11:13.154Z,29.52
2018-04-12T00:12:15.685Z,31.65
2018-04-12T00:13:18.240Z,33.15
2018-04-12T00:14:20.802Z,30.15
2018-04-12T00:15:23.323Z,32.13
2018-04-12T00:16:25.848Z,32.83
2018-04-12T00:17:28.379Z,32.38
2018-04-12T00:18:31.672Z,31.23
2018-04-12T00:19:34.236Z,34.10
2018-04-12T00:20:36.780Z,31.83
2018-04-12T00:21:40.074Z,31.62
2018-04-12T00:22:43.379Z,33.95
2018-04-12T00:23:45.912Z,32.13
2018-04-12T00:24:48.481Z,33.08
2018-04-12T00:25:51.017Z,33.38
2018-04-12T00:26:53.542Z,33.20
2018-04-12T00:27:56.065Z,35.17
2018-04-12T00:28:58.594Z,33.10
2018-04-12T00:30:01.155Z,34.00
2018-04-12T00:31:03.684Z,33.13
2018-04-12T00:32:07.033Z,32.95
2018-04-12T00:33:09.560Z,33.75
2018-04-12T00:34:12.088Z,32.80
2018-04-12T00:35:14.621Z,34.92
2018-04-12T00:36:17.140Z,33.25
2018-04-12T00:37:19.712Z,32.00
2018-04-12T00:38:22.999Z,31.30
2018-04-12T00:39:25.530Z,36.38
2018-04-12T00:40:28.061Z,32.38
2018-04-12T00:41:30.615Z,33.30
2018-04-12T00:42:33.206Z,33.30
2018-04-12T00:43:35.743Z,32.90
2018-04-12T00:44:38.300Z,32.90
2018-04-12T00:45:40.840Z,32.40
2018-04-12T00:46:44.149Z,33.20
2018-04-12T00:47:46.672Z,32.90
2018-04-12T00:48:49.248Z,32.10
2018-04-12T00:49:51.781Z,34.10
2018-04-12T00:50:54.324Z,34.13
2018-04-12T00:51:56.898Z,32.65
2018-04-12T00:52:59.435Z,34.47
2018-04-12T00:54:08.380Z,34.65
2018-04-12T00:55:10.903Z,32.38
2018-04-12T00:56:13.436Z,33.70
2018-04-12T00:57:15.999Z,32.83
2018-04-12T00:58:18.532Z,33.38
2018-04-12T00:59:21.060Z,33.15
2018-04-12T01:00:23.624Z,31.45
2018-04-12T01:01:26.196Z,31.75
2018-04-12T01:02:28.727Z,32.17
2018-04-12T01:03:31.254Z,30.35
2018-04-12T01:04:34.578Z,32.22
2018-04-12T01:05:37.113Z,32.60
2018-04-12T01:06:39.637Z,31.95
2018-04-12T01:07:42.163Z,33.85
2018-04-12T01:08:44.696Z,32.95
2018-04-12T01:09:48.052Z,33.08
2018-04-12T01:10:50.575Z,31.65
2018-04-12T01:11:53.104Z,33.42
2018-04-12T01:12:56.435Z,33.38
2018-04-12T01:13:59.822Z,35.10
2018-04-12T01:15:02.347Z,33.05
2018-04-12T01:16:05.778Z,32.28
2018-04-12T01:17:08.335Z,34.28
2018-04-12T01:18:10.870Z,34.10
2018-04-12T01:19:14.170Z,33.90
2018-04-12T01:20:16.692Z,36.20
2018-04-12T01:21:19.257Z,36.03
2018-04-12T01:22:21.783Z,33.50
2018-04-12T01:23:24.309Z,33.95
2018-04-12T01:24:27.644Z,34.25
2018-04-12T01:25:30.180Z,33.95
2018-04-12T01:26:32.712Z,33.92
2018-04-12T01:27:35.242Z,33.75
2018-04-12T01:28:37.809Z,33.47
2018-04-12T01:29:40.335Z,35.20
2018-04-12T01:30:43.627Z,35.10
2018-04-12T01:31:46.920Z,33.88
2018-04-12T01:33:01.376Z,34.45
2018-04-12T01:34:03.907Z,32.50
2018-04-12T01:35:06.460Z,35.45
2018-04-12T01:36:09.026Z,35.35
2018-04-12T01:37:11.563Z,36.38
2018-04-12T01:38:14.086Z,35.00
2018-04-12T01:39:17.375Z,35.83
2018-04-12T01:40:19.905Z,34.72
2018-04-12T01:41:22.456Z,35.22
2018-04-12T01:42:25.004Z,33.70
2018-04-12T01:43:27.572Z,33.45
2018-04-12T01:44:30.102Z,34.60
2018-04-12T01:45:33.392Z,34.20
2018-04-12T01:46:35.933Z,34.88
2018-04-12T01:47:39.233Z,35.22
2018-04-12T01:48:42.555Z,34.10
2018-04-12T01:49:45.081Z,33.80
2018-04-12T01:50:48.376Z,33.72
2018-04-12T01:51:51.033Z,34.95
2018-04-12T01:52:54.320Z,33.70
2018-04-12T01:53:56.861Z,33.53
2018-04-12T01:54:59.387Z,33.78
2018-04-12T01:56:01.963Z,31.60
2018-04-12T01:57:04.488Z,33.35
2018-04-12T01:58:07.017Z,33.05
2018-04-12T01:59:09.545Z,31.67
2018-04-12T02:00:12.098Z,30.45
2018-04-12T02:01:14.665Z,33.00
2018-04-12T02:02:17.223Z,34.13
2018-04-12T02:03:19.767Z,31.45
2018-04-12T02:04:23.085Z,31.77
2018-04-12T02:05:25.631Z,32.90
2018-04-12T02:06:28.195Z,32.40
2018-04-12T02:07:31.489Z,34.65
2018-04-12T02:08:34.021Z,37.25
2018-04-12T02:09:36.552Z,34.25
2018-04-12T02:10:39.087Z,35.95
2018-04-12T02:11:41.656Z,33.75
2018-04-12T02:12:44.190Z,33.45
2018-04-12T02:13:46.715Z,31.05
2018-04-12T02:14:49.241Z,33.58
2018-04-12T02:15:52.543Z,34.95
2018-04-12T02:16:55.107Z,33.00
2018-04-12T02:17:57.638Z,34.50
2018-04-12T02:19:00.201Z,34.90
2018-04-12T02:20:02.724Z,35.25
2018-04-12T02:21:05.250Z,35.25
2018-04-12T02:22:08.575Z,33.90
2018-04-12T02:23:11.145Z,34.80
2018-04-12T02:24:13.676Z,33.83
2018-04-12T02:25:16.974Z,34.80
2018-04-12T02:26:19.507Z,34.08
2018-04-12T02:27:22.034Z,35.85
2018-04-12T02:28:24.594Z,34.38
2018-04-12T02:29:27.121Z,35.78
2018-04-12T02:30:30.419Z,34.95
2018-04-12T02:31:32.948Z,32.95
2018-04-12T02:32:35.472Z,33.03
2018-04-12T02:33:38.019Z,33.55
2018-04-12T02:34:40.550Z,32.25
2018-04-12T02:35:43.072Z,33.75
2018-04-12T02:36:45.604Z,35.08
2018-04-12T02:37:48.146Z,33.50
2018-04-12T02:38:50.708Z,36.42
2018-04-12T02:39:53.269Z,37.03
2018-04-12T02:40:55.808Z,36.25
2018-04-12T02:41:58.368Z,37.28
2018-04-12T02:43:00.940Z,39.05
2018-04-12T02:44:03.464Z,40.60
2018-04-12T02:45:06.756Z,42.17
2018-04-12T02:46:10.079Z,38.63
2018-04-12T02:47:12.618Z,38.30
2018-04-12T02:48:15.163Z,42.55
2018-04-12T02:49:18.452Z,41.40
2018-04-12T02:50:21.783Z,44.13
2018-04-12T02:51:24.347Z,41.45
2018-04-12T02:52:27.640Z,43.95
2018-04-12T02:53:30.168Z,45.35
2018-04-12T02:54:32.707Z,42.95
2018-04-12T02:55:36.034Z,42.03
2018-04-12T02:56:38.595Z,43.20
2018-04-12T02:57:41.181Z,46.17
2018-04-12T02:58:43.705Z,45.45
2018-04-12T02:59:46.988Z,45.25
2018-04-12T03:00:49.523Z,45.60
2018-04-12T03:01:52.061Z,45.72
2018-04-12T03:02:54.628Z,45.67
2018-04-12T03:03:57.157Z,45.78
2018-04-12T03:05:00.448Z,48.22
2018-04-12T03:06:02.979Z,48.95
2018-04-12T03:07:05.563Z,47.55
2018-04-12T03:08:08.879Z,48.85
2018-04-12T03:09:11.402Z,46.28
2018-04-12T03:10:13.928Z,46.90
2018-04-12T03:11:16.457Z,49.03
2018-04-12T03:12:19.763Z,49.35
2018-04-12T03:13:22.325Z,51.75
2018-04-12T03:14:24.856Z,50.05
2018-04-12T03:15:28.149Z,48.83
2018-04-12T03:16:31.452Z,51.20
2018-04-12T03:17:33.976Z,50.67
2018-04-12T03:18:36.558Z,50.85
2018-04-12T03:19:39.841Z,47.97
2018-04-12T03:20:43.131Z,50.53
2018-04-12T03:21:46.420Z,50.97
2018-04-12T03:22:49.733Z,49.85
2018-04-12T03:23:52.304Z,49.17
2018-04-12T03:24:54.845Z,49.53
2018-04-12T03:25:57.408Z,49.88
2018-04-12T03:26:59.946Z,52.67
2018-04-12T03:28:02.506Z,49.88
2018-04-12T03:29:05.055Z,50.38
2018-04-12T03:30:07.637Z,52.60
2018-04-12T03:31:10.168Z,51.63
2018-04-12T03:32:12.709Z,51.55
2018-04-12T03:33:16.015Z,51.67
2018-04-12T03:34:18.540Z,50.50
2018-04-12T03:35:21.102Z,48.97
2018-04-12T03:36:23.637Z,52.08
2018-04-12T03:37:26.161Z,50.70
2018-04-12T03:38:28.718Z,51.10
2018-04-12T03:39:32.002Z,52.62
2018-04-12T03:40:35.291Z,52.53
2018-04-12T03:41:38.582Z,49.88
2018-04-12T03:42:41.107Z,52.20
2018-04-12T03:43:43.679Z,51.70
2018-04-12T03:44:46.203Z,51.22
2018-04-12T03:45:48.731Z,52.85
2018-04-12T03:46:52.015Z,51.85
2018-04-12T03:47:55.307Z,53.58
2018-04-12T03:48:57.883Z,51.90
2018-04-12T03:50:00.442Z,53.58
2018-04-12T03:51:02.971Z,51.95
2018-04-12T03:52:05.503Z,52.65
2018-04-12T03:53:08.033Z,53.75
2018-04-12T03:54:11.355Z,52.53
2018-04-12T03:55:13.879Z,52.17
2018-04-12T03:56:17.169Z,49.30
2018-04-12T03:57:20.464Z,51.10
2018-04-12T03:58:23.030Z,51.70
2018-04-12T03:59:25.595Z,50.67
2018-04-12T04:00:28.912Z,51.75
2018-04-12T04:01:31.450Z,51.95
2018-04-12T04:02:33.980Z,54.25
2018-04-12T04:03:36.515Z,51.20
2018-04-12T04:04:39.040Z,53.20
2018-04-12T04:05:41.598Z,49.13
2018-04-12T04:06:44.889Z,50.80
2018-04-12T04:07:48.223Z,51.13
2018-04-12T04:08:50.753Z,51.58
2018-04-12T04:09:53.285Z,51.35
2018-04-12T04:10:55.843Z,50.55
2018-04-12T04:11:58.380Z,50.70
2018-04-12T04:13:00.899Z,50.78
2018-04-12T04:14:04.200Z,50.60
2018-04-12T04:15:27.388Z,52.45
2018-04-12T04:16:41.833Z,49.33
2018-04-12T04:17:56.254Z,48.38
2018-04-12T04:19:10.742Z,48.78
2018-04-12T04:20:25.068Z,46.42
2018-04-12T04:21:27.629Z,49.10
2018-04-12T04:22:30.155Z,50.90
2018-04-12T04:23:32.686Z,50.35
2018-04-12T04:24:35.221Z,53.67
2018-04-12T04:25:37.753Z,53.30
2018-04-12T04:26:40.331Z,50.53
2018-04-12T04:27:42.878Z,51.22
2018-04-12T04:28:46.181Z,47.55
2018-04-12T04:29:48.716Z,50.53
2018-04-12T04:30:52.013Z,48.92
2018-04-12T04:31:55.348Z,50.95
2018-04-12T04:32:57.868Z,50.20
2018-04-12T04:34:00.459Z,49.88
2018-04-12T04:35:03.000Z,51.42
2018-04-12T04:36:06.908Z,47.95
2018-04-12T04:37:09.438Z,49.30
2018-04-12T04:38:11.968Z,50.42
2018-04-12T04:39:14.528Z,46.80
2018-04-12T04:40:17.053Z,47.60
2018-04-12T04:41:20.385Z,48.95
2018-04-12T04:42:22.921Z,49.20
2018-04-12T04:43:25.449Z,47.53
2018-04-12T04:44:27.981Z,48.58
2018-04-12T04:45:30.534Z,47.42
2018-04-12T04:46:33.101Z,49.30
2018-04-12T04:47:35.631Z,49.90
2018-04-12T04:48:38.918Z,50.25
2018-04-12T04:49:42.213Z,50.92
2018-04-12T04:50:45.512Z,48.20
2018-04-12T04:51:48.101Z,49.17
2018-04-12T04:52:50.632Z,48.05
2018-04-12T04:53:53.178Z,48.10
2018-04-12T04:54:56.529Z,48.00
2018-04-12T04:55:59.044Z,46.83
2018-04-12T04:57:01.608Z,48.38
2018-04-12T04:58:04.913Z,51.08
2018-04-12T04:59:07.450Z,50.28
2018-04-12T05:00:10.752Z,50.90
2018-04-12T05:01:13.288Z,51.10
2018-04-12T05:02:15.865Z,47.00
2018-04-12T05:03:19.152Z,47.62
2018-04-12T05:04:22.451Z,47.95
2018-04-12T05:05:24.984Z,48.10
2018-04-12T05:06:27.516Z,48.87
2018-04-12T05:07:30.078Z,50.60
2018-04-12T05:08:32.629Z,50.33
2018-04-12T05:09:35.197Z,48.25
2018-04-12T05:10:37.728Z,48.28
2018-04-12T05:11:41.033Z,47.65
2018-04-12T05:12:43.559Z,46.85
2018-04-12T05:13:46.125Z,47.78
2018-04-12T05:14:48.657Z,48.25
2018-04-12T05:15:51.175Z,48.72
2018-04-12T05:16:53.733Z,47.90
2018-04-12T05:17:56.291Z,48.75
2018-04-12T05:18:58.812Z,47.67
2018-04-12T05:20:01.338Z,47.92
2018-04-12T05:21:03.886Z,48.92
2018-04-12T05:22:06.414Z,47.60
2018-04-12T05:23:08.973Z,46.92
2018-04-12T05:24:11.502Z,46.80
2018-04-12T05:25:14.027Z,47.28
2018-04-12T05:26:16.574Z,48.72
2018-04-12T05:27:19.114Z,48.60
2018-04-12T05:28:22.435Z,48.10
2018-04-12T05:29:24.964Z,45.50
2018-04-12T05:30:28.295Z,47.42
2018-04-12T05:31:30.841Z,48.22
2018-04-12T05:32:33.372Z,50.25
2018-04-12T05:33:36.668Z,47.85
2018-04-12T05:34:39.969Z,46.55
2018-04-12T05:35:42.527Z,48.60
2018-04-12T05:36:45.059Z,47.15
2018-04-12T05:37:47.579Z,49.35
2018-04-12T05:38:50.124Z,49.63
2018-04-12T05:39:52.669Z,46.70
2018-04-12T05:40:56.012Z,48.13
2018-04-12T05:41:58.584Z,48.30
2018-04-12T05:43:01.121Z,45.88
2018-04-12T05:44:03.704Z,47.62
2018-04-12T05:45:06.231Z,47.35
2018-04-12T05:46:09.527Z,46.60
2018-04-12T05:47:12.089Z,49.22
2018-04-12T05:48:15.387Z,47.22
2018-04-12T05:49:17.920Z,46.88
2018-04-12T05:50:21.221Z,47.88
2018-04-12T05:51:24.506Z,45.60
2018-04-12T05:52:27.079Z,46.55
2018-04-12T05:53:29.611Z,47.78
2018-04-12T05:54:32.148Z,48.30
2018-04-12T05:55:34.673Z,48.63
2018-04-12T05:56:37.960Z,46.42
2018-04-12T05:57:40.528Z,46.25
2018-04-12T05:58:43.049Z,44.83
2018-04-12T05:59:45.581Z,46.42
2018-04-12T06:00:48.114Z,46.37
2018-04-12T06:01:51.417Z,44.92
2018-04-12T06:02:53.985Z,46.42
2018-04-12T06:03:56.514Z,45.80
2018-04-12T06:04:59.045Z,48.58
2018-04-12T06:06:01.605Z,46.58
2018-04-12T06:07:04.132Z,48.00
2018-04-12T06:08:06.665Z,47.13
2018-04-12T06:09:09.200Z,46.78
2018-04-12T06:10:11.743Z,46.17
2018-04-12T06:11:14.310Z,46.95
2018-04-12T06:12:16.832Z,47.22
2018-04-12T06:13:19.363Z,44.20
2018-04-12T06:14:21.904Z,45.08
2018-04-12T06:15:24.431Z,47.10
2018-04-12T06:16:26.992Z,44.85
2018-04-12T06:17:29.516Z,47.40
2018-04-12T06:18:32.035Z,44.60
2018-04-12T06:19:34.604Z,47.97
2018-04-12T06:20:37.898Z,45.70
2018-04-12T06:21:41.190Z,46.35
2018-04-12T06:22:44.488Z,46.60
2018-04-12T06:23:47.017Z,47.10
2018-04-12T06:24:49.591Z,45.10
2018-04-12T06:25:52.128Z,46.08
2018-04-12T06:26:54.651Z,45.03
2018-04-12T06:27:57.187Z,48.05
2018-04-12T06:28:59.749Z,46.65
2018-04-12T06:30:02.317Z,47.50
2018-04-12T06:31:04.853Z,46.22
2018-04-12T06:32:07.384Z,46.78
2018-04-12T06:33:09.929Z,46.28
2018-04-12T06:34:13.223Z,46.20
2018-04-12T06:35:16.547Z,45.92
2018-04-12T06:36:19.075Z,44.03
2018-04-12T06:37:22.408Z,44.88
2018-04-12T06:38:24.950Z,43.30
2018-04-12T06:39:27.519Z,45.08
2018-04-12T06:40:30.048Z,43.65
2018-04-12T06:41:33.344Z,44.67
2018-04-12T06:42:36.639Z,42.50
2018-04-12T06:43:39.163Z,44.10
2018-04-12T06:44:41.740Z,43.20
2018-04-12T06:45:44.264Z,44.03
2018-04-12T06:46:46.800Z,44.40
2018-04-12T06:47:49.338Z,43.92
2018-04-12T06:48:51.863Z,43.95
2018-04-12T06:49:54.420Z,44.67
2018-04-12T06:50:56.986Z,42.65
2018-04-12T06:51:59.492Z,41.92
2018-04-12T06:53:02.062Z,44.83
2018-04-12T06:54:04.655Z,42.75
2018-04-12T06:55:07.140Z,42.62
2018-04-12T06:56:09.693Z,41.25
2018-04-12T06:57:13.016Z,41.45
2018-04-12T06:58:15.544Z,41.00
2018-04-12T06:59:18.081Z,42.75
2018-04-12T07:00:20.616Z,41.80
2018-04-12T07:01:23.136Z,41.65
2018-04-12T07:02:26.475Z,43.00
2018-04-12T07:03:29.010Z,42.25
2018-04-12T07:04:31.539Z,42.28
2018-04-12T07:05:34.833Z,44.17
2018-04-12T07:06:38.162Z,39.35
2018-04-12T07:07:40.698Z,42.58
2018-04-12T07:08:43.232Z,41.60
2018-04-12T07:09:45.770Z,41.10
2018-04-12T07:10:48.300Z,40.63
2018-04-12T07:11:50.868Z,41.15
2018-04-12T07:12:53.400Z,40.90
2018-04-12T07:13:55.924Z,39.80
2018-04-12T07:14:58.464Z,41.00
2018-04-12T07:16:00.995Z,40.95
2018-04-12T07:17:04.329Z,38.67
2018-04-12T07:18:06.863Z,41.60
2018-04-12T07:19:10.167Z,41.05
2018-04-12T07:20:12.738Z,39.63
2018-04-12T07:21:15.272Z,40.70
2018-04-12T07:22:18.555Z,39.22
2018-04-12T07:23:21.848Z,39.63
2018-04-12T07:24:25.183Z,40.20
2018-04-12T07:25:27.715Z,37.10
2018-04-12T07:26:30.243Z,38.70
2018-04-12T07:27:32.789Z,40.28
2018-04-12T07:28:35.348Z,40.33
2018-04-12T07:29:37.927Z,40.10
2018-04-12T07:30:40.453Z,38.67
2018-04-12T07:31:42.979Z,38.30
2018-04-12T07:32:45.517Z,41.17
2018-04-12T07:33:48.052Z,40.22
2018-04-12T07:34:50.613Z,37.97
2018-04-12T07:35:53.141Z,39.90
2018-04-12T07:36:55.675Z,39.00
2018-04-12T07:37:58.209Z,40.00
2018-04-12T07:39:00.775Z,39.95
2018-04-12T07:40:03.301Z,39.15
2018-04-12T07:41:05.834Z,39.35
2018-04-12T07:42:08.363Z,39.80
2018-04-12T07:43:10.929Z,39.70
2018-04-12T07:44:13.504Z,38.92
2018-04-12T07:45:16.039Z,38.67
2018-04-12T07:46:18.580Z,38.35
2018-04-12T07:47:21.109Z,35.38
2018-04-12T07:48:23.636Z,38.53
2018-04-12T07:49:26.977Z,38.05
2018-04-12T07:50:29.503Z,36.08
2018-04-12T07:51:32.833Z,37.22
2018-04-12T07:52:35.357Z,38.60
2018-04-12T07:53:38.650Z,38.40
2018-04-12T07:54:41.184Z,37.05
2018-04-12T07:55:43.745Z,37.10
2018-04-12T07:56:46.264Z,37.22
2018-04-12T07:57:48.796Z,36.75
2018-04-12T07:58:52.132Z,37.00
2018-04-12T07:59:54.657Z,36.47
2018-04-12T08:00:57.957Z,36.97
2018-04-12T08:02:00.542Z,33.67
2018-04-12T08:03:03.097Z,35.55
2018-04-12T08:04:05.665Z,34.88
2018-04-12T08:05:08.202Z,34.30
2018-04-12T08:06:11.496Z,34.10
2018-04-12T08:07:14.024Z,33.63
2018-04-12T08:08:16.552Z,35.67
2018-04-12T08:09:19.117Z,34.03
2018-04-12T08:10:21.684Z,35.42
2018-04-12T08:11:24.210Z,36.00
2018-04-12T08:12:27.535Z,34.83
2018-04-12T08:13:30.077Z,35.40
2018-04-12T08:14:33.367Z,34.47
2018-04-12T08:15:35.948Z,34.67
2018-04-12T08:16:38.497Z,36.13
2018-04-12T08:17:41.034Z,35.17
2018-04-12T08:18:43.571Z,33.45
2018-04-12T08:19:46.094Z,36.05
2018-04-12T08:20:48.664Z,36.42
2018-04-12T08:21:51.189Z,34.90
2018-04-12T08:22:53.754Z,32.55
2018-04-12T08:23:56.283Z,34.50
2018-04-12T08:24:58.852Z,35.50
2018-04-12T08:26:01.383Z,34.42
2018-04-12T08:27:04.710Z,32.60
2018-04-12T08:28:07.240Z,35.10
2018-04-12T08:29:10.576Z,34.10
2018-04-12T08:30:13.106Z,33.78
2018-04-12T08:31:15.637Z,34.28
2018-04-12T08:32:18.169Z,34.80
2018-04-12T08:33:20.692Z,31.73
2018-04-12T08:34:23.257Z,34.45
2018-04-12T08:35:26.552Z,33.40
2018-04-12T08:36:29.088Z,33.63
2018-04-12T08:37:31.680Z,33.03
2018-04-12T08:38:34.204Z,34.22
2018-04-12T08:39:36.744Z,34.40
2018-04-12T08:40:39.273Z,33.47
2018-04-12T08:41:42.570Z,32.53
2018-04-12T08:42:45.128Z,33.72
2018-04-12T08:43:47.656Z,32.90
2018-04-12T08:44:50.194Z,31.73
2018-04-12T08:45:52.753Z,33.70
2018-04-12T08:46:55.283Z,34.10
2018-04-12T08:47:58.623Z,34.00
2018-04-12T08:49:01.144Z,29.45
2018-04-12T08:50:03.679Z,31.10
2018-04-12T08:51:06.208Z,29.63
2018-04-12T08:52:08.735Z,29.92
2018-04-12T08:53:11.314Z,31.40
2018-04-12T08:54:13.851Z,33.05
2018-04-12T08:55:16.370Z,33.33
2018-04-12T08:56:18.898Z,30.73
2018-04-12T08:57:21.427Z,30.40
2018-04-12T08:58:23.993Z,30.75
2018-04-12T08:59:26.519Z,33.25
2018-04-12T09:00:29.048Z,29.20
2018-04-12T09:01:32.344Z,28.40
2018-04-12T09:02:35.680Z,26.48
2018-04-12T09:03:38.213Z,28.20
2018-04-12T09:04:40.748Z,28.95
2018-04-12T09:05:43.272Z,27.25
2018-04-12T09:06:45.844Z,28.45
2018-04-12T09:07:48.373Z,27.08
2018-04-12T09:08:50.899Z,28.08
2018-04-12T09:09:53.424Z,28.83
2018-04-12T09:10:55.988Z,26.85
2018-04-12T09:11:58.520Z,27.80
2018-04-12T09:13:01.847Z,26.45
2018-04-12T09:14:04.376Z,28.38
2018-04-12T09:15:07.668Z,30.15
2018-04-12T09:16:10.232Z,29.45
2018-04-12T09:17:12.801Z,29.75
2018-04-12T09:18:15.338Z,30.35
2018-04-12T09:19:17.870Z,28.60
2018-04-12T09:20:20.399Z,30.58
2018-04-12T09:21:22.927Z,29.20
2018-04-12T09:22:25.500Z,31.60
2018-04-12T09:23:28.018Z,30.45
2018-04-12T09:24:30.550Z,28.85
2018-04-12T09:25:33.870Z,28.85
2018-04-12T09:26:36.411Z,28.85
2018-04-12T09:27:39.716Z,30.02
2018-04-12T09:28:42.248Z,31.33
2018-04-12T09:29:45.534Z,31.10
2018-04-12T09:30:48.896Z,31.27
2018-04-12T09:31:51.427Z,30.95
2018-04-12T09:32:53.956Z,31.27
2018-04-12T09:33:57.250Z,30.60
2018-04-12T09:34:59.780Z,30.67
2018-04-12T09:36:02.344Z,31.50
2018-04-12T09:37:04.915Z,31.05
2018-04-12T09:38:07.437Z,33.03
2018-04-12T09:39:09.995Z,31.35
2018-04-12T09:40:12.531Z,32.22
2018-04-12T09:41:15.153Z,31.55
2018-04-12T09:42:17.672Z,32.92
2018-04-12T09:43:20.966Z,33.10
2018-04-12T09:44:23.495Z,33.05
2018-04-12T09:45:26.022Z,32.85
2018-04-12T09:46:28.597Z,32.30
2018-04-12T09:47:31.119Z,32.63
2018-04-12T09:48:34.440Z,35.58
2018-04-12T09:49:36.960Z,35.42
2018-04-12T09:50:40.370Z,32.70
2018-04-12T09:51:42.810Z,34.30
2018-04-12T09:52:45.391Z,34.30
2018-04-12T09:53:48.693Z,32.80
2018-04-12T09:54:51.226Z,33.22
2018-04-12T09:55:53.780Z,32.72
2018-04-12T09:56:56.312Z,32.67
2018-04-12T09:57:58.877Z,32.47
2018-04-12T09:59:01.449Z,33.80
2018-04-12T10:00:04.043Z,33.08
2018-04-12T10:01:15.040Z,32.13
2018-04-12T10:02:33.227Z,32.90
2018-04-12T10:03:36.558Z,31.80
2018-04-12T10:04:45.607Z,33.92
2018-04-12T10:05:53.897Z,35.30
2018-04-12T10:08:34.475Z,33.88
2018-04-12T10:09:36.999Z,37.75
2018-04-12T10:10:40.308Z,35.17
2018-04-12T10:11:42.839Z,36.40
2018-04-12T10:12:45.425Z,36.70
2018-04-12T10:13:48.756Z,36.25
2018-04-12T10:14:51.284Z,35.05
2018-04-12T10:15:53.824Z,35.13
2018-04-12T10:16:56.343Z,36.17
2018-04-12T10:17:58.867Z,36.90
2018-04-12T10:19:01.437Z,36.30
2018-04-12T10:20:04.746Z,37.70
2018-04-12T10:21:07.268Z,34.92
2018-04-12T10:22:09.801Z,38.80
2018-04-12T10:23:12.332Z,37.17
2018-04-12T10:24:14.900Z,36.08
2018-04-12T10:25:17.442Z,36.47
2018-04-12T10:26:20.735Z,38.83
2018-04-12T10:27:24.031Z,35.63
2018-04-12T10:28:26.599Z,36.95
2018-04-12T10:29:29.148Z,35.42
2018-04-12T10:30:32.472Z,37.10
2018-04-12T10:31:35.002Z,36.60
2018-04-12T10:32:38.294Z,37.20
2018-04-12T10:33:40.819Z,38.03
2018-04-12T10:34:43.388Z,36.67
2018-04-12T10:35:45.935Z,41.40
2018-04-12T10:36:48.455Z,37.15
2018-04-12T10:37:51.739Z,39.33
2018-04-12T10:38:55.078Z,38.47
2018-04-12T10:39:57.611Z,37.85
2018-04-12T10:41:00.131Z,38.10
2018-04-12T10:42:02.665Z,38.22
2018-04-12T10:43:05.205Z,37.80
2018-04-12T10:44:07.789Z,38.22
2018-04-12T10:45:10.313Z,38.50
2018-04-12T10:46:13.603Z,37.33
2018-04-12T10:47:16.892Z,34.97
2018-04-12T10:48:20.187Z,34.28
2018-04-12T10:49:22.763Z,35.22
2018-04-12T10:50:25.291Z,36.75
2018-04-12T10:51:28.598Z,36.92
2018-04-12T10:52:31.140Z,36.80
2018-04-12T10:53:34.448Z,38.53
2018-04-12T10:54:37.028Z,35.10
2018-04-12T10:55:39.583Z,36.17
2018-04-12T10:56:42.148Z,36.38
2018-04-12T10:57:44.677Z,35.75
2018-04-12T10:58:47.210Z,36.50
2018-04-12T10:59:49.775Z,36.00
2018-04-12T11:00:52.303Z,34.90
2018-04-12T11:01:54.840Z,36.47
2018-04-12T11:02:57.403Z,36.97
2018-04-12T11:03:59.939Z,36.28
2018-04-12T11:05:02.493Z,35.63
2018-04-12T11:06:05.030Z,35.30
2018-04-12T11:07:08.367Z,34.92
2018-04-12T11:08:10.905Z,35.95
2018-04-12T11:09:13.431Z,37.55
2018-04-12T11:10:15.975Z,36.20
2018-04-12T11:11:18.549Z,37.05
2018-04-12T11:12:21.143Z,36.70
2018-04-12T11:13:23.644Z,37.00
2018-04-12T11:14:26.172Z,37.38
2018-04-12T11:15:29.467Z,35.25
2018-04-12T11:16:32.043Z,37.10
2018-04-12T11:17:34.572Z,36.30
2018-04-12T11:18:37.091Z,36.07
2018-04-12T11:19:39.625Z,36.83
2018-04-12T11:20:42.934Z,37.78
2018-04-12T11:21:45.512Z,36.53
2018-04-12T11:22:48.047Z,37.97
2018-04-12T11:23:50.611Z,36.83
2018-04-12T11:24:53.938Z,36.47
2018-04-12T11:25:56.456Z,36.83
2018-04-12T11:26:59.795Z,39.72
2018-04-12T11:28:02.332Z,38.57
2018-04-12T11:29:04.864Z,38.67
2018-04-12T11:30:08.159Z,37.17
2018-04-12T11:31:11.465Z,36.77
2018-04-12T11:32:14.020Z,37.03
2018-04-12T11:33:17.326Z,36.63
2018-04-12T11:34:19.931Z,35.37
2018-04-12T11:35:22.460Z,35.80
2018-04-12T11:36:25.030Z,35.63
2018-04-12T11:37:27.568Z,35.20
2018-04-12T11:38:30.852Z,34.80
2018-04-12T11:39:34.157Z,34.43
2018-04-12T11:40:36.684Z,33.47
2018-04-12T11:41:40.014Z,33.40
2018-04-12T11:42:42.540Z,34.00
2018-04-12T11:43:45.839Z,33.83
2018-04-12T11:44:49.136Z,32.33
2018-04-12T11:45:51.659Z,34.00
2018-04-12T11:46:54.225Z,34.67
2018-04-12T11:47:56.766Z,33.97
2018-04-12T11:48:59.299Z,34.07
2018-04-12T11:50:01.876Z,33.17
2018-04-12T11:51:04.400Z,32.40
2018-04-12T11:52:07.695Z,35.00
2018-04-12T11:53:11.014Z,33.10
2018-04-12T11:54:13.574Z,33.40
2018-04-12T11:55:16.123Z,33.17
2018-04-12T11:56:18.658Z,33.63
2018-04-12T11:57:21.190Z,31.87
2018-04-12T11:58:23.754Z,31.40
2018-04-12T11:59:26.281Z,31.53
2018-04-12T12:00:29.613Z,31.47
2018-04-12T12:01:32.142Z,32.00
2018-04-12T12:02:34.681Z,30.30
2018-04-12T12:03:37.995Z,32.73
2018-04-12T12:04:40.533Z,31.20
2018-04-12T12:05:43.114Z,31.23
2018-04-12T12:06:46.413Z,33.40
2018-04-12T12:07:48.939Z,31.20
2018-04-12T12:08:51.473Z,32.27
2018-04-12T12:09:54.002Z,30.73
2018-04-12T12:10:57.341Z,30.97
2018-04-12T12:11:59.872Z,31.47
2018-04-12T12:13:02.404Z,31.20
2018-04-12T12:14:05.703Z,32.87
2018-04-12T12:15:09.008Z,32.30
2018-04-12T12:16:11.606Z,30.97
2018-04-12T12:17:14.142Z,30.07
2018-04-12T12:18:16.670Z,32.13
2018-04-12T12:19:19.195Z,32.13
2018-04-12T12:20:21.756Z,30.83
2018-04-12T12:21:24.343Z,32.60
2018-04-12T12:22:26.887Z,29.83
2018-04-12T12:23:29.416Z,31.10
2018-04-12T12:24:32.713Z,30.13
2018-04-12T12:25:35.244Z,29.50
2018-04-12T12:26:37.816Z,28.93
2018-04-12T12:27:40.356Z,31.53
2018-04-12T12:28:42.890Z,29.00
2018-04-12T12:29:45.441Z,32.20
2018-04-12T12:30:48.004Z,30.50
2018-04-12T12:31:50.559Z,32.97
2018-04-12T12:32:53.848Z,30.60
2018-04-12T12:33:57.157Z,31.13
2018-04-12T12:34:59.679Z,30.90
2018-04-12T12:36:02.222Z,32.50
2018-04-12T12:37:04.799Z,32.10
2018-04-12T12:38:07.334Z,30.50
2018-04-12T12:39:09.868Z,31.03
2018-04-12T12:40:12.395Z,32.80
2018-04-12T12:41:14.966Z,32.17
2018-04-12T12:42:17.504Z,33.47
2018-04-12T12:43:20.027Z,32.10
2018-04-12T12:44:22.571Z,31.47
2018-04-12T12:45:25.107Z,32.47
2018-04-12T12:46:27.663Z,32.50
2018-04-12T12:47:30.197Z,30.70
2018-04-12T12:48:33.483Z,31.53
2018-04-12T12:49:36.021Z,30.60
2018-04-12T12:50:38.559Z,31.07
2018-04-12T12:51:41.166Z,31.70
2018-04-12T12:52:43.667Z,28.90
2018-04-12T12:53:46.189Z,30.30
2018-04-12T12:54:49.497Z,30.53
2018-04-12T12:55:52.069Z,30.67
2018-04-12T12:56:55.384Z,30.70
2018-04-12T12:57:57.908Z,30.03
2018-04-12T12:59:01.200Z,29.07
2018-04-12T13:00:03.731Z,28.50
2018-04-12T13:01:06.303Z,30.03
2018-04-12T13:02:08.832Z,28.50
2018-04-12T13:03:11.368Z,29.87
2018-04-12T13:04:13.895Z,28.90
2018-04-12T13:05:16.424Z,29.73
2018-04-12T13:06:18.996Z,29.10
2018-04-12T13:07:21.536Z,30.53
2018-04-12T13:08:24.072Z,29.70
2018-04-12T13:09:27.410Z,31.27
2018-04-12T13:10:29.952Z,30.93
2018-04-12T13:11:32.481Z,30.30
2018-04-12T13:12:35.012Z,29.20
2018-04-12T13:13:37.536Z,29.57
2018-04-12T13:14:40.861Z,31.20
2018-04-12T13:15:43.433Z,30.63
2018-04-12T13:16:45.964Z,29.17
2018-04-12T13:17:48.497Z,29.23
2018-04-12T13:18:51.819Z,28.80
2018-04-12T13:19:54.353Z,28.20
2018-04-12T13:20:56.916Z,28.67
2018-04-12T13:21:59.448Z,28.27
2018-04-12T13:23:01.975Z,27.30
2018-04-12T13:24:04.507Z,28.67
2018-04-12T13:25:07.066Z,28.40
2018-04-12T13:26:09.608Z,28.40
2018-04-12T13:27:12.136Z,28.20
2018-04-12T13:28:15.435Z,26.53
2018-04-12T13:29:17.969Z,26.27
2018-04-12T13:30:20.509Z,27.33
2018-04-12T13:31:23.068Z,27.17